Impacts METAR Board
IDs:

KDLS - The Dalles Muni, OR, US

Updated at: 0200 UTC 29 Nov 2020
Potential Impact None Slight Moderate High
Time 28/14Z 28/15Z 28/16Z 28/17Z 28/18Z 28/19Z 28/20Z 28/21Z 28/22Z 28/23Z 29/00Z 29/01Z 29/02Z
Temp33 33 34 38 48 51 53 53 52 54 51 50 48
Dewpt31 30 31 34 40 41 41 41 41 42 41 41 41
Altim30.26 30.27 30.28 30.30 30.32 30.32 30.32 30.32 30.32 30.32 30.34 30.34 30.35
VIS10 10 10 10 10 10 10 10 10 10 10 10 10
CIG-- 55 50 22 19 -- 60 42 55 -- 60 60 60
CoverSCTOVCBKNOVCOVCFEWOVCOVCBKNSCTBKNBKNOVC
FltCatVFRVFRVFRMVFRMVFRVFRVFRVFRVFRVFRVFRVFRVFR
WX--------------------------
WDir10001000028025025033003203200
WSpd4 0 5 3 0 5 9 5 9 4 6 7 3
WGst-- -- -- -- -- -- -- -- -- -- -- -- --
Raw hourly METARs
KDLS 281353Z AUTO 10004KT 10SM SCT110 01/M01 A3026 RMK AO2 SLP249 T00061006
KDLS 281453Z AUTO 00000KT 10SM OVC055 01/M01 A3027 RMK AO2 SLP255 T00061011 53009
KDLS 281553Z AUTO 10005KT 10SM SCT043 BKN050 01/M01 A3028 RMK AO2 SLP257 T00111006
KDLS 281653Z AUTO VRB03KT 10SM OVC022 03/01 A3030 RMK AO2 SLP261 T00330011
KDLS 281753Z AUTO 00000KT 10SM OVC019 09/04 A3032 RMK AO2 SLP268 T00890044 10089 21011 53014
KDLS 281853Z AUTO 28005KT 10SM FEW050 11/05 A3032 RMK AO2 SLP269 T01060050
KDLS 281953Z AUTO 25009KT 10SM FEW027 FEW046 OVC060 12/05 A3032 RMK AO2 SLP269 T01170050
KDLS 282053Z AUTO 25005KT 10SM BKN042 OVC050 12/05 A3032 RMK AO2 SLP270 T01170050 52002
KDLS 282153Z AUTO 33009KT 10SM BKN055 11/05 A3032 RMK AO2 SLP270 T01110050
KDLS 282253Z AUTO VRB04KT 10SM SCT042 12/06 A3032 RMK AO2 SLP270 T01220056
KDLS 282353Z AUTO 32006KT 10SM BKN060 11/05 A3034 RMK AO2 SLP275 T01060050 10128 20089 53005
KDLS 290053Z AUTO 32007KT 10SM BKN060 10/05 A3034 RMK AO2 SLP277 T01000050
KDLS 290153Z AUTO VRB03KT 10SM OVC060 09/05 A3035 RMK AO2 SLP279 T00890050



Page loaded:  02:04 UTC  |   06:04 PM Pacific  |   07:04 PM Mountain  |   08:04 PM Central  |   09:04 PM Eastern

 

ADVISORIES

FORECASTS

FORECASTS

OBSERVATIONS

USER TOOLS

ABOUT US